Time;durP1;ratioP1;P1;durP2;ratioP2;P2;SDS_P1;SDS_P2;PMS_P1;PMS_P2;Temp;Humidity;BMP_temperature;BMP_pressure;BME280_temperature;BME280_humidity;BME280_pressure;Samples;Min_cycle;Max_cycle;Signal;HPM_P1;HPM_P2
2022/06/22 00:00:20;;;;;;;2.22;1.55;;;;;;;18.18;42.47;99492.72;7698007;32;40713;-70
2022/06/22 00:05:05;;;;;;;1.70;1.60;;;;;;;18.08;42.97;99485.59;7698070;32;37753;-69
2022/06/22 00:09:30;;;;;;;1.98;1.58;;;;;;;17.90;42.97;99495.88;7710419;32;36925;-70
2022/06/22 00:13:49;;;;;;;2.53;1.50;;;;;;;17.79;43.61;99500.88;7698638;32;39958;-70
2022/06/22 00:18:42;;;;;;;3.53;1.70;;;;;;;17.86;43.70;99483.88;7710343;32;41098;-70
2022/06/22 00:23:12;;;;;;;2.05;1.52;;;;;;;17.93;43.51;99481.41;7711073;32;37700;-69
2022/06/22 00:27:30;;;;;;;3.65;1.95;;;;;;;17.79;43.34;99475.25;7698247;32;37188;-70
2022/06/22 00:31:49;;;;;;;3.60;1.90;;;;;;;17.72;44.59;99472.19;7711228;32;39468;-70
2022/06/22 00:36:13;;;;;;;2.17;1.60;;;;;;;17.80;44.45;99479.66;7711027;32;39890;-70
2022/06/22 00:40:30;;;;;;;3.25;1.70;;;;;;;17.64;45.11;99488.44;7710997;32;37877;-70
2022/06/22 00:45:02;;;;;;;1.40;1.30;;;;;;;17.54;46.10;99485.16;7710999;32;37160;-69
2022/06/22 00:49:21;;;;;;;4.03;2.00;;;;;;;17.68;45.71;99477.56;7698346;32;39211;-70
2022/06/22 00:53:42;;;;;;;1.85;1.60;;;;;;;17.77;45.48;99481.09;7697219;32;39905;-70
2022/06/22 00:58:18;;;;;;;1.60;1.50;;;;;;;17.74;45.49;99481.75;7710446;32;36887;-69
2022/06/22 01:02:44;;;;;;;2.83;1.83;;;;;;;17.87;45.02;99485.50;7696929;32;37713;-70
2022/06/22 01:07:20;;;;;;;3.22;1.48;;;;;;;17.78;45.17;99481.91;7710576;32;39328;-70
2022/06/22 01:16:23;;;;;;;2.60;1.77;;;;;;;17.65;45.33;99483.72;7698426;32;38008;-70
2022/06/22 01:20:57;;;;;;;2.42;1.70;;;;;;;17.53;46.00;99498.16;7697108;32;37206;-70
2022/06/22 01:25:35;;;;;;;2.50;1.70;;;;;;;17.68;45.92;99493.25;7696235;32;39393;-70
2022/06/22 01:30:00;;;;;;;2.00;1.70;;;;;;;17.48;46.97;99483.75;7712834;32;40079;-70
2022/06/22 01:34:17;;;;;;;3.30;1.70;;;;;;;17.53;47.12;99470.59;7713441;32;36842;-70
2022/06/22 01:38:37;;;;;;;2.85;1.80;;;;;;;17.50;47.18;99467.69;7699633;32;37198;-70
2022/06/22 01:42:57;;;;;;;3.10;1.70;;;;;;;17.50;46.87;99464.94;7713164;32;39413;-70
2022/06/22 01:47:18;;;;;;;1.90;1.52;;;;;;;17.38;47.15;99473.84;7712834;32;39906;-71
2022/06/22 01:51:45;;;;;;;2.33;1.80;;;;;;;17.64;46.25;99469.13;7699410;32;37891;-71
2022/06/22 01:56:15;;;;;;;1.70;1.60;;;;;;;17.35;47.16;99474.50;7699717;32;37283;-70
2022/06/22 02:00:31;;;;;;;3.58;1.92;;;;;;;17.34;47.31;99481.16;7712911;32;39556;-70
2022/06/22 02:04:54;;;;;;;1.70;1.60;;;;;;;17.38;47.06;99468.34;7699099;32;40684;-70
2022/06/22 02:09:14;;;;;;;1.60;1.50;;;;;;;17.48;46.77;99470.75;7712786;32;37856;-70
2022/06/22 02:13:57;;;;;;;2.72;1.87;;;;;;;17.30;47.63;99485.66;7712523;32;37117;-68
2022/06/22 02:18:32;;;;;;;3.40;1.77;;;;;;;17.34;48.55;99492.16;7700181;32;40055;-69
2022/06/22 02:22:51;;;;;;;2.12;1.62;;;;;;;17.49;47.39;99497.19;7700278;32;39938;-70
2022/06/22 02:27:10;;;;;;;3.00;1.67;;;;;;;17.24;47.95;99485.84;7698954;32;38747;-70
2022/06/22 02:31:27;;;;;;;3.20;2.17;;;;;;;16.97;49.08;99500.72;7699026;32;37816;-70
2022/06/22 02:35:44;;;;;;;2.42;1.90;;;;;;;17.04;49.03;99511.25;7712391;32;40061;-71
2022/06/22 02:40:03;;;;;;;2.53;2.10;;;;;;;16.95;49.46;99513.19;7711842;32;39671;-71
2022/06/22 02:44:35;;;;;;;4.65;2.30;;;;;;;17.15;48.99;99504.31;7712062;32;38060;-71
2022/06/22 02:48:57;;;;;;;3.40;2.20;;;;;;;17.00;50.05;99527.59;7712384;32;37116;-70
2022/06/22 02:53:33;;;;;;;5.12;2.00;;;;;;;16.92;51.19;99530.34;7698982;32;39485;-69
2022/06/22 02:57:53;;;;;;;2.08;1.70;;;;;;;16.88;51.78;99531.00;7699621;32;40732;-70
2022/06/22 03:02:09;;;;;;;2.50;1.98;;;;;;;17.14;51.55;99537.69;7712040;32;37885;-70
2022/06/22 03:06:33;;;;;;;3.95;2.20;;;;;;;17.05;51.79;99548.69;7698486;32;37783;-69
2022/06/22 03:11:06;;;;;;;2.83;2.10;;;;;;;17.14;51.60;99549.50;7711990;32;39068;-70
2022/06/22 03:15:25;;;;;;;1.75;1.62;;;;;;;17.19;51.19;99549.34;7712042;32;40780;-70
2022/06/22 03:19:51;;;;;;;2.10;1.80;;;;;;;16.99;51.62;99552.72;7711873;32;37807;-70
2022/06/22 03:24:25;;;;;;;3.58;2.30;;;;;;;16.96;52.19;99561.63;7711735;32;37388;-70
2022/06/22 03:28:46;;;;;;;1.85;1.75;;;;;;;16.85;52.87;99561.94;7711989;32;40255;-70
2022/06/22 03:33:09;;;;;;;4.80;2.40;;;;;;;17.05;52.29;99566.00;7698559;32;40558;-70
2022/06/22 03:37:31;;;;;;;4.28;2.47;;;;;;;16.98;52.27;99562.12;7698564;32;38605;-71
2022/06/22 03:41:50;;;;;;;5.78;3.20;;;;;;;17.13;51.90;99561.66;7711395;32;37179;-70
2022/06/22 03:46:11;;;;;;;7.72;3.12;;;;;;;17.21;51.62;99563.62;7698370;32;39179;-70
2022/06/22 03:50:33;;;;;;;6.20;3.62;;;;;;;17.14;51.81;99555.00;7698035;32;40910;-73
2022/06/22 03:54:55;;;;;;;4.97;2.55;;;;;;;17.19;53.01;99546.59;7711594;32;38749;-70
2022/06/22 03:59:12;;;;;;;3.63;2.23;;;;;;;17.34;51.75;99539.00;7710716;32;37855;-70
2022/06/22 04:03:28;;;;;;;8.85;2.40;;;;;;;17.36;51.38;99531.22;7711315;32;39311;-70
2022/06/22 04:07:45;;;;;;;2.95;2.30;;;;;;;17.49;51.08;99513.72;7697355;32;39982;-70
2022/06/22 04:12:17;;;;;;;3.97;1.98;;;;;;;17.67;50.51;99508.19;7697304;32;38579;-70
2022/06/22 04:17:01;;;;;;;6.35;3.00;;;;;;;17.73;50.98;99512.38;7703125;32;37244;-71
2022/06/22 04:21:32;;;;;;;11.18;4.62;;;;;;;17.79;50.76;99511.91;7710716;32;40509;-71
2022/06/22 04:25:48;;;;;;;10.05;4.75;;;;;;;17.82;50.45;99522.28;7697694;32;40714;-71
2022/06/22 04:30:13;;;;;;;5.70;2.60;;;;;;;17.79;50.74;99533.16;7711007;32;37816;-72
2022/06/22 04:34:35;;;;;;;5.55;2.22;;;;;;;17.83;50.94;99539.62;7710495;32;36984;-71
2022/06/22 04:39:06;;;;;;;2.53;2.10;;;;;;;17.93;50.43;99533.81;7697512;32;40066;-71
2022/06/22 04:43:22;;;;;;;3.90;2.30;;;;;;;18.07;50.50;99552.91;7697626;32;40822;-71
2022/06/22 04:47:38;;;;;;;7.62;2.95;;;;;;;18.14;49.91;99538.63;7710811;32;38761;-71
2022/06/22 04:52:18;;;;;;;4.78;2.75;;;;;;;18.19;49.94;99543.97;7694227;32;37941;-71
2022/06/22 04:56:44;;;;;;;8.95;3.60;;;;;;;18.37;49.37;99542.78;7705207;32;40098;-71
2022/06/22 05:01:02;;;;;;;7.97;4.22;;;;;;;18.44;49.56;99547.81;7697028;32;40778;-70
2022/06/22 05:05:25;;;;;;;7.62;2.70;;;;;;;18.67;48.07;99562.16;7710373;32;37097;-70
2022/06/22 05:09:58;;;;;;;10.23;2.47;;;;;;;18.99;47.17;99570.97;7710562;32;36976;-70
2022/06/22 05:14:27;;;;;;;5.70;1.90;;;;;;;18.99;48.20;99575.66;7710519;32;40310;-77
2022/06/22 05:18:45;;;;;;;4.53;1.90;;;;;;;19.31;47.12;99574.97;7697462;32;39982;-71
2022/06/22 05:23:02;;;;;;;4.35;1.80;;;;;;;19.56;46.10;99577.06;7696439;32;38041;-71
2022/06/22 05:27:23;;;;;;;127.97;9.82;;;;;;;19.66;45.37;99585.78;7696301;32;36978;-71
2022/06/22 05:31:46;;;;;;;8.02;2.15;;;;;;;19.63;45.43;99580.13;7710374;32;40208;-71
2022/06/22 05:36:06;;;;;;;4.60;2.10;;;;;;;19.75;44.46;99571.09;7709883;32;40730;-70
2022/06/22 05:40:30;;;;;;;4.55;2.12;;;;;;;19.97;44.46;99578.22;7696583;32;37846;-71
2022/06/22 05:44:46;;;;;;;4.72;2.10;;;;;;;19.77;46.06;99585.41;7709564;32;37766;-71
2022/06/22 05:49:02;;;;;;;2.55;1.80;;;;;;;19.98;44.65;99586.19;7696146;32;39102;-72
2022/06/22 05:53:27;;;;;;;4.50;1.80;;;;;;;20.10;44.24;99581.84;7709392;32;39705;-70
2022/06/22 05:58:18;;;;;;;6.15;2.10;;;;;;;20.16;43.97;99584.06;7709434;32;37920;-70
2022/06/22 06:02:42;;;;;;;3.42;2.25;;;;;;;20.14;44.03;99578.03;7709429;32;37759;-76
2022/06/22 06:07:12;;;;;;;8.55;2.10;;;;;;;20.30;44.11;99586.53;7709261;32;40029;-75
2022/06/22 06:11:41;;;;;;;3.00;1.95;;;;;;;20.32;43.93;99586.19;7708620;32;39999;-75
2022/06/22 06:15:59;;;;;;;3.12;2.28;;;;;;;20.56;43.57;99590.97;7698413;32;38397;-74
2022/06/22 06:20:26;;;;;;;5.87;2.05;;;;;;;20.54;43.62;99591.31;7699870;32;37249;-73
2022/06/22 06:29:34;;;;;;;3.40;2.28;;;;;;;20.85;43.09;99601.03;7701882;32;39680;-74
2022/06/22 06:33:50;;;;;;;5.75;2.47;;;;;;;20.69;44.53;99608.44;7712343;32;37845;-71
2022/06/22 06:38:33;;;;;;;4.60;1.92;;;;;;;20.89;43.66;99607.53;7711771;32;37847;-73
2022/06/22 06:43:14;;;;;;;2.60;1.60;;;;;;;20.87;43.32;99615.38;7712051;32;39472;-71
2022/06/22 06:47:36;;;;;;;7.47;1.98;;;;;;;21.34;42.41;99589.94;7673552;32;39973;-72
2022/06/22 06:52:01;;;;;;;4.75;1.95;;;;;;;21.66;41.46;99605.97;7685593;32;38719;-71
2022/06/22 06:56:27;;;;;;;4.62;1.92;;;;;;;21.53;41.19;99605.19;7693646;32;37887;-71
2022/06/22 07:00:43;;;;;;;9.07;2.15;;;;;;;21.32;41.56;99589.50;7699591;32;40236;-71
2022/06/22 07:05:01;;;;;;;2.65;1.60;;;;;;;21.13;41.36;99583.75;7711900;32;39878;-70
2022/06/22 07:09:30;;;;;;;3.42;1.73;;;;;;;21.24;41.56;99579.34;7697667;32;37852;-72
2022/06/22 07:13:52;;;;;;;5.15;2.00;;;;;;;21.50;40.14;99575.38;7686055;32;36803;-71
2022/06/22 07:18:36;;;;;;;1.60;1.45;;;;;;;21.82;40.75;99570.78;7709197;32;38906;-71
2022/06/22 07:23:00;;;;;;;4.15;1.75;;;;;;;21.56;40.28;99571.22;7706253;32;40563;-71
2022/06/22 07:27:22;;;;;;;3.75;1.83;;;;;;;21.27;41.06;99578.62;7710321;32;37853;-71
2022/06/22 07:31:45;;;;;;;3.08;1.73;;;;;;;21.78;39.25;99575.41;7709243;32;37242;-75
2022/06/22 07:36:31;;;;;;;2.58;1.70;;;;;;;22.11;38.31;99557.69;7695434;32;39790;-72
2022/06/22 07:45:24;;;;;;;7.32;2.00;;;;;;;22.36;38.26;99566.72;7709324;32;37751;-71
2022/06/22 07:49:54;;;;;;;5.47;1.87;;;;;;;22.39;39.11;99570.75;7711777;32;38090;-71
2022/06/22 07:54:38;;;;;;;2.50;1.80;;;;;;;22.01;38.74;99555.41;7711683;32;39138;-71
2022/06/22 07:58:58;;;;;;;1.85;1.58;;;;;;;22.24;37.65;99541.78;7706514;32;39946;-72
2022/06/22 08:03:29;;;;;;;2.67;1.50;;;;;;;22.66;38.67;99541.28;7698022;32;38608;-71
2022/06/22 08:07:46;;;;;;;5.43;1.70;;;;;;;22.63;37.93;99542.00;7698580;32;37039;-71
2022/06/22 08:12:28;;;;;;;2.58;1.37;;;;;;;23.14;35.99;99528.13;7711305;32;40029;-71
2022/06/22 08:16:48;;;;;;;3.50;1.70;;;;;;;23.33;35.90;99527.34;7699701;32;40892;-71
2022/06/22 08:21:10;;;;;;;2.55;1.33;;;;;;;23.39;34.49;99511.22;7697620;32;38045;-71
2022/06/22 08:25:28;;;;;;;;;;;;;;;23.66;34.59;99508.56;7711344;32;36827;-71
2022/06/22 08:29:46;;;;;;;3.08;1.60;;;;;;;23.35;34.32;99516.69;7711150;32;39654;-71
2022/06/22 08:34:05;;;;;;;5.75;1.50;;;;;;;23.71;32.71;99500.72;7697307;32;40564;-71
2022/06/22 08:38:32;;;;;;;3.12;1.20;;;;;;;23.51;32.68;99497.16;7696916;32;38614;-71
2022/06/22 08:42:58;;;;;;;6.93;1.70;;;;;;;24.06;33.25;99490.66;7698404;32;36770;-71
2022/06/22 08:47:51;;;;;;;4.20;1.42;;;;;;;24.35;31.89;99498.34;7711342;32;39342;-71
2022/06/22 08:52:20;;;;;;;12.07;1.87;;;;;;;24.31;31.56;99497.47;7711015;32;40218;-71
2022/06/22 08:57:09;;;;;;;6.05;1.50;;;;;;;24.24;31.35;99505.69;7698358;32;37721;-71
2022/06/22 09:01:34;;;;;;;4.18;1.20;;;;;;;23.93;31.71;99499.19;7710949;32;37083;-71
2022/06/22 09:06:06;;;;;;;2.05;1.10;;;;;;;24.47;32.80;99496.53;7710811;32;40051;-71
2022/06/22 09:10:34;;;;;;;2.22;1.27;;;;;;;24.46;31.21;99495.72;7710690;32;40730;-71
2022/06/22 09:15:11;;;;;;;4.12;1.50;;;;;;;24.63;31.79;99485.25;7709615;32;38145;-71
2022/06/22 09:19:33;;;;;;;4.32;1.10;;;;;;;24.93;29.94;99494.50;7710458;32;37528;-71
2022/06/22 09:23:55;;;;;;;0.98;0.80;;;;;;;24.36;28.33;99496.34;7696717;32;40139;-72
2022/06/22 09:28:18;;;;;;;2.03;1.10;;;;;;;24.51;29.92;99484.28;7710643;32;37835;-72
2022/06/22 09:32:37;;;;;;;3.40;1.12;;;;;;;24.46;28.41;99497.72;7697170;32;37845;-72
2022/06/22 09:37:17;;;;;;;0.90;0.88;;;;;;;24.53;28.77;99484.69;7709775;32;36851;-71
2022/06/22 09:41:45;;;;;;;1.95;0.77;;;;;;;24.95;26.50;99482.97;7708879;32;40284;-72
2022/06/22 09:46:25;;;;;;;1.25;0.90;;;;;;;25.55;24.82;99487.75;7709533;32;40756;-72
2022/06/22 09:50:50;;;;;;;1.08;0.75;;;;;;;25.66;24.81;99473.94;7712251;32;38793;-71
2022/06/22 10:00:03;;;;;;;0.73;0.70;;;;;;;26.23;21.54;99448.56;7712850;32;39283;-71
2022/06/22 10:04:31;;;;;;;3.10;0.70;;;;;;;26.91;21.48;99453.91;7713355;32;40827;-72
2022/06/22 10:09:08;;;;;;;0.80;0.80;;;;;;;27.08;22.17;99464.38;7710196;32;37876;-72
2022/06/22 10:13:38;;;;;;;1.90;0.70;;;;;;;26.70;21.54;99465.72;7709802;32;36866;-71
2022/06/22 10:18:10;;;;;;;5.25;1.08;;;;;;;26.33;21.76;99464.62;7709855;32;39151;-71
2022/06/22 10:22:54;;;;;;;1.08;0.90;;;;;;;26.09;23.99;99457.63;7697267;32;40045;-72
2022/06/22 10:27:44;;;;;;;2.62;0.70;;;;;;;26.58;21.56;99464.84;7712846;32;37719;-71
2022/06/22 10:32:21;;;;;;;2.30;0.80;;;;;;;26.52;22.44;99460.78;7712809;32;37637;-72
2022/06/22 10:36:54;;;;;;;1.75;0.60;;;;;;;27.23;22.10;99464.44;7712625;32;39108;-72
2022/06/22 10:46:08;;;;;;;2.40;0.73;;;;;;;27.33;22.16;99472.09;7712404;32;37967;-73
2022/06/22 10:50:29;;;;;;;1.30;0.73;;;;;;;27.44;21.29;99469.34;7699541;32;37917;-72
2022/06/22 10:55:19;;;;;;;1.10;0.70;;;;;;;27.70;22.22;99462.66;7712561;32;40205;-72
2022/06/22 10:59:48;;;;;;;2.95;0.70;;;;;;;27.89;19.21;99465.09;7711943;32;40013;-73
2022/06/22 11:04:42;;;;;;;0.80;0.60;;;;;;;27.68;20.03;99473.44;7700767;32;37835;-73
2022/06/22 11:08:58;;;;;;;2.78;0.90;;;;;;;27.62;20.26;99463.81;7712328;32;37048;-72
2022/06/22 11:13:26;;;;;;;2.53;0.98;;;;;;;27.04;21.20;99474.72;7712365;32;39274;-72
2022/06/22 11:17:53;;;;;;;0.88;0.57;;;;;;;27.01;21.00;99474.72;7712265;32;39720;-72
2022/06/22 11:22:26;;;;;;;2.05;0.68;;;;;;;27.69;20.19;99470.22;7712172;32;38429;-73
2022/06/22 11:32:18;;;;;;;1.05;0.70;;;;;;;28.57;20.26;99449.56;7712122;32;39352;-73
2022/06/22 11:36:53;;;;;;;3.50;0.73;;;;;;;28.61;20.46;99453.97;7712430;32;39949;-73
2022/06/22 11:42:07;;;;;;;0.75;0.50;;;;;;;29.26;18.15;99453.00;7711464;32;38245;-73
2022/06/22 11:46:33;;;;;;;0.55;0.55;;;;;;;28.63;17.66;99447.94;7688293;32;37816;-72
2022/06/22 11:51:03;;;;;;;3.53;0.80;;;;;;;28.81;18.61;99433.88;7711726;32;39568;-72
2022/06/22 11:55:27;;;;;;;1.83;0.77;;;;;;;28.54;20.73;99445.50;7698339;32;39861;-73
2022/06/22 12:00:14;;;;;;;13.62;1.05;;;;;;;28.90;19.45;99445.47;7698564;32;37843;-73
2022/06/22 12:04:55;;;;;;;2.28;0.60;;;;;;;29.50;18.35;99434.47;7711606;32;37101;-73
2022/06/22 12:09:18;;;;;;;0.60;0.60;;;;;;;29.49;19.43;99424.41;7711678;32;39402;-72
2022/06/22 12:19:00;;;;;;;0.80;0.65;;;;;;;29.20;18.05;99414.16;7701991;32;38031;-73
2022/06/22 12:23:47;;;;;;;4.12;0.88;;;;;;;29.66;18.54;99408.69;7699189;32;37269;-73
2022/06/22 12:28:12;;;;;;;0.52;0.47;;;;;;;29.71;17.44;99403.41;7711523;32;39295;-72
2022/06/22 12:32:28;;;;;;;1.02;0.60;;;;;;;29.77;19.68;99404.63;7711414;32;39639;-72
2022/06/22 12:36:48;;;;;;;3.17;0.70;;;;;;;29.95;18.60;99404.47;7710924;32;37983;-72
2022/06/22 12:41:37;;;;;;;1.58;1.02;;;;;;;30.12;18.31;99401.94;7698308;32;37045;-73
2022/06/22 12:46:17;;;;;;;2.08;0.73;;;;;;;29.88;18.73;99401.72;7711175;32;39347;-71
2022/06/22 12:51:13;;;;;;;2.37;0.77;;;;;;;30.68;19.41;99397.03;7710652;32;39933;-71
2022/06/22 12:55:39;;;;;;;1.58;0.50;;;;;;;29.98;18.20;99394.44;7710488;32;38724;-71
2022/06/22 13:00:16;;;;;;;1.55;0.50;;;;;;;30.52;18.09;99391.16;7698095;32;37068;-71
2022/06/22 13:04:36;;;;;;;0.43;0.43;;;;;;;30.54;16.84;99385.91;7710798;32;39666;-71
2022/06/22 13:08:53;;;;;;;3.33;0.70;;;;;;;30.63;16.82;99388.22;7697026;32;39698;-72
2022/06/22 13:13:17;;;;;;;0.60;0.60;;;;;;;30.60;16.10;99387.06;7701793;32;276451;-71
2022/06/22 13:17:43;;;;;;;1.65;0.60;;;;;;;30.52;16.99;99383.50;7710356;32;37155;-72
2022/06/22 13:22:27;;;;;;;0.88;0.70;;;;;;;30.57;16.16;99378.66;7697410;32;39321;-72
2022/06/22 13:27:02;;;;;;;2.67;0.73;;;;;;;30.77;16.75;99365.59;7698458;32;40071;-72
2022/06/22 13:31:30;;;;;;;0.98;0.90;;;;;;;30.65;18.54;99366.91;7709952;32;37856;-72
2022/06/22 13:35:54;;;;;;;3.40;0.75;;;;;;;30.34;18.57;99364.00;7709974;32;37268;-72
2022/06/22 13:40:27;;;;;;;2.33;0.65;;;;;;;29.94;18.53;99363.56;7709848;32;39096;-72
2022/06/22 13:44:53;;;;;;;0.65;0.65;;;;;;;30.23;18.66;99363.28;7697241;32;40133;-73
2022/06/22 13:49:14;;;;;;;4.90;0.90;;;;;;;30.12;17.84;99354.19;7709388;32;37848;-73
2022/06/22 13:54:00;;;;;;;0.73;0.73;;;;;;;30.96;16.64;99357.72;7681521;32;38132;-72
2022/06/22 13:58:18;;;;;;;2.30;0.57;;;;;;;30.91;18.66;99353.34;7682732;32;40019;-72
2022/06/22 14:02:37;;;;;;;2.45;0.90;;;;;;;31.15;17.78;99350.66;7682650;32;39899;-73
2022/06/22 14:07:17;;;;;;;1.10;0.62;;;;;;;31.14;16.80;99344.22;7682514;32;37957;-72
2022/06/22 14:11:44;;;;;;;2.45;0.50;;;;;;;30.86;17.19;99340.53;7681580;32;36954;-72
2022/06/22 14:16:23;;;;;;;1.60;0.57;;;;;;;30.82;16.08;99345.44;7682663;32;39283;-72
2022/06/22 14:21:00;;;;;;;0.85;0.70;;;;;;;30.79;17.99;99342.66;7681435;32;40789;-71
2022/06/22 14:25:35;;;;;;;1.50;0.62;;;;;;;31.04;17.22;99333.91;7681302;32;38026;-72
2022/06/22 14:30:23;;;;;;;1.37;0.80;;;;;;;31.05;16.20;99336.31;7682350;32;37091;-72
2022/06/22 14:34:55;;;;;;;2.75;0.95;;;;;;;30.31;18.29;99336.72;7675564;32;39238;-72
2022/06/22 14:39:34;;;;;;;1.37;0.93;;;;;;;30.39;19.24;99339.47;7686076;32;39847;-72
2022/06/22 14:44:18;;;;;;;2.55;0.90;;;;;;;30.66;19.88;99340.38;7684774;32;37835;-72
2022/06/22 14:48:44;;;;;;;1.33;0.75;;;;;;;30.63;19.27;99332.78;7685959;32;37067;-72
2022/06/22 14:53:18;;;;;;;0.93;0.80;;;;;;;30.51;19.47;99322.06;7703005;32;40135;-73
2022/06/22 14:57:46;;;;;;;2.05;0.60;;;;;;;30.54;19.00;99318.41;7712493;32;39978;-73
2022/06/22 15:02:19;;;;;;;7.18;1.23;;;;;;;31.01;19.53;99306.59;7699586;32;38606;-72
2022/06/22 15:06:54;;;;;;;2.35;1.00;;;;;;;31.25;18.38;99299.03;7712579;32;37035;-72
2022/06/22 15:16:04;;;;;;;5.93;1.17;;;;;;;31.19;17.94;99289.47;7701752;32;39994;-72
2022/06/22 15:20:50;;;;;;;0.95;0.85;;;;;;;31.75;17.26;99270.13;7711982;32;37817;-72
2022/06/22 15:25:23;;;;;;;5.50;1.10;;;;;;;31.34;18.34;99268.34;7686664;32;37110;-71
2022/06/22 15:29:48;;;;;;;0.82;0.52;;;;;;;31.45;19.45;99254.06;7712128;32;39452;-72
2022/06/22 15:34:22;;;;;;;1.77;0.77;;;;;;;31.56;18.47;99268.00;7712054;32;39798;-72
2022/06/22 15:38:51;;;;;;;5.53;0.95;;;;;;;31.49;17.94;99263.25;7700031;32;37706;-72
2022/06/22 15:43:23;;;;;;;2.20;1.20;;;;;;;31.21;20.36;99261.69;7698710;32;37097;-71
2022/06/22 15:47:51;;;;;;;2.10;1.07;;;;;;;31.00;20.23;99260.00;7699118;32;39303;-72
2022/06/22 15:52:16;;;;;;;2.35;0.80;;;;;;;30.64;18.91;99260.44;7698541;32;39823;-72
2022/06/22 15:57:13;;;;;;;3.53;1.17;;;;;;;30.65;19.98;99251.59;7711763;32;37910;-72
2022/06/22 16:01:48;;;;;;;10.23;1.45;;;;;;;30.29;19.79;99252.00;7711494;32;37717;-72
2022/06/22 16:06:13;;;;;;;2.58;1.00;;;;;;;30.85;19.78;99243.25;7711449;32;40141;-72
2022/06/22 16:16:12;;;;;;;2.78;0.93;;;;;;;31.45;19.97;99235.16;7711625;32;38754;-72
2022/06/22 16:20:57;;;;;;;3.83;1.02;;;;;;;31.36;19.85;99243.34;7711519;32;37012;-72
2022/06/22 16:25:17;;;;;;;4.32;1.02;;;;;;;31.25;19.53;99243.53;7699826;32;40074;-72
2022/06/22 16:29:49;;;;;;;4.93;1.30;;;;;;;30.84;19.24;99240.91;7697872;32;39897;-72
2022/06/22 16:34:27;;;;;;;4.75;1.45;;;;;;;30.46;21.06;99235.34;7711147;32;37979;-70
2022/06/22 16:39:03;;;;;;;1.70;1.00;;;;;;;30.11;22.36;99235.34;7710946;32;37895;-78
2022/06/22 16:43:19;;;;;;;1.50;0.75;;;;;;;29.95;21.18;99223.87;7711149;32;39268;-81
2022/06/22 16:48:05;;;;;;;5.55;1.12;;;;;;;29.83;21.81;99216.75;7708246;32;40006;-70
2022/06/22 16:52:33;;;;;;;3.30;1.08;;;;;;;29.64;21.33;99217.31;7688412;32;38129;-72
2022/06/22 16:57:05;;;;;;;2.08;1.20;;;;;;;29.24;23.12;99219.69;7697781;32;37265;-72
2022/06/22 17:01:28;;;;;;;2.78;0.88;;;;;;;29.35;22.49;99215.53;7708704;32;39157;-72
2022/06/22 17:05:52;;;;;;;3.28;0.98;;;;;;;29.08;22.56;99211.72;7710222;32;39705;-72
2022/06/22 17:10:44;;;;;;;3.95;1.08;;;;;;;29.02;21.77;99214.97;7696395;32;37694;-73
2022/06/22 17:15:02;;;;;;;2.22;1.10;;;;;;;28.68;21.82;99222.38;7702280;32;36962;-79
2022/06/22 17:19:26;;;;;;;1.40;0.90;;;;;;;28.56;23.39;99220.84;7710422;32;39202;-80
2022/06/22 17:23:57;;;;;;;2.90;0.80;;;;;;;28.42;25.62;99218.88;7682265;32;39659;-82
2022/06/22 17:28:28;;;;;;;7.82;1.02;;;;;;;28.35;26.26;99219.69;7689431;32;38039;-77
2022/06/22 17:32:59;;;;;;;3.17;1.30;;;;;;;28.10;25.35;99211.38;7683373;32;36797;-79
2022/06/22 17:37:24;;;;;;;5.65;1.10;;;;;;;27.91;24.99;99219.03;7683411;32;40267;-74
2022/06/22 17:42:08;;;;;;;8.95;2.08;;;;;;;27.98;26.42;99215.41;7688831;32;39839;-73
2022/06/22 17:46:26;;;;;;;5.65;3.37;;;;;;;27.79;26.51;99210.25;7709763;32;38648;-74
2022/06/22 17:50:49;;;;;;;5.20;1.73;;;;;;;27.46;26.37;99220.66;7709677;32;36870;-76
2022/06/22 17:55:16;;;;;;;7.37;3.70;;;;;;;27.48;27.06;99238.66;7708581;32;40636;-69
2022/06/22 17:59:46;;;;;;;12.73;5.60;;;;;;;27.33;28.51;99246.22;7707172;32;40360;-73
2022/06/22 18:04:11;;;;;;;10.95;3.40;;;;;;;27.29;28.56;99244.66;7707398;32;37911;-70
2022/06/22 18:08:43;;;;;;;7.22;1.98;;;;;;;27.42;28.02;99247.84;7694228;32;37116;-70
2022/06/22 18:12:59;;;;;;;9.40;1.83;;;;;;;27.39;28.46;99257.03;7700650;32;37140;-75
2022/06/22 18:17:21;;;;;;;11.10;4.10;;;;;;;27.28;27.41;99262.63;7712697;32;41201;-73
2022/06/22 18:21:39;;;;;;;8.20;1.95;;;;;;;27.20;26.71;99259.00;7712587;32;37872;-73
2022/06/22 18:26:08;;;;;;;3.53;1.20;;;;;;;27.10;26.57;99268.16;7712672;32;37348;-73
2022/06/22 18:30:36;;;;;;;5.80;1.70;;;;;;;27.13;25.62;99264.56;7712576;32;40206;-72
2022/06/22 18:35:15;;;;;;;77.72;34.45;;;;;;;26.99;25.82;99256.94;7712920;32;40797;-72
2022/06/22 18:44:23;;;;;;;2.42;1.60;;;;;;;26.83;27.25;99268.50;7712372;32;37099;-71
2022/06/22 18:49:08;;;;;;;2.00;1.30;;;;;;;26.80;26.72;99269.28;7699284;32;40012;-71
2022/06/22 18:53:40;;;;;;;5.03;1.67;;;;;;;26.74;27.47;99270.88;7708445;32;40607;-71
2022/06/22 18:58:16;;;;;;;9.18;1.65;;;;;;;26.64;27.71;99260.44;7704067;32;37925;-72
2022/06/22 19:02:59;;;;;;;1.87;1.20;;;;;;;26.66;27.86;99267.22;7710877;32;37731;-71
2022/06/22 19:07:16;;;;;;;9.13;1.40;;;;;;;26.50;28.31;99278.72;7706973;32;40380;-71
2022/06/22 19:11:35;;;;;;;3.50;1.37;;;;;;;26.31;28.88;99284.59;7712190;32;39881;-72
2022/06/22 19:16:14;;;;;;;3.12;1.25;;;;;;;26.26;28.83;99274.59;7712236;32;38802;-71
2022/06/22 19:20:49;;;;;;;1.83;1.48;;;;;;;26.14;27.30;99272.94;7711815;32;36778;-72
2022/06/22 19:25:27;;;;;;;1.33;1.10;;;;;;;26.14;28.37;99278.50;7712011;32;40085;-72
2022/06/22 19:29:46;;;;;;;1.90;1.33;;;;;;;26.10;29.09;99283.28;7696891;32;40872;-71
2022/06/22 19:34:34;;;;;;;3.83;1.27;;;;;;;26.12;29.49;99280.91;7711629;32;36843;-72
2022/06/22 19:39:55;;;;;;;4.65;1.37;;;;;;;25.83;29.98;99280.66;7710000;32;37212;-72
2022/06/22 19:44:18;;;;;;;7.78;1.70;;;;;;;25.81;29.95;99288.62;7628180;32;40059;-72
2022/06/22 19:48:53;;;;;;;4.65;1.90;;;;;;;25.78;30.42;99294.19;7661252;32;40706;-71
2022/06/22 19:53:09;;;;;;;5.65;1.83;;;;;;;25.53;34.36;99296.78;7684913;32;38045;-72
2022/06/22 19:57:25;;;;;;;5.93;1.85;;;;;;;25.43;34.87;99307.44;7709647;32;37333;-71
2022/06/22 20:02:03;;;;;;;2.85;1.80;;;;;;;25.30;35.17;99303.31;7703372;32;40220;-72
2022/06/22 20:06:26;;;;;;;3.80;1.80;;;;;;;25.18;34.83;99311.94;7709077;32;40008;-71
2022/06/22 20:10:56;;;;;;;2.05;1.45;;;;;;;25.36;32.61;99304.59;7698439;32;38862;-71
2022/06/22 20:15:46;;;;;;;2.45;1.33;;;;;;;25.12;33.41;99309.50;7698971;32;37642;-72
2022/06/22 20:20:03;;;;;;;1.55;1.33;;;;;;;25.17;33.44;99304.78;7711512;32;39987;-72
2022/06/22 20:24:23;;;;;;;4.68;1.60;;;;;;;25.12;33.09;99309.50;7670967;32;39115;-71
2022/06/22 20:28:51;;;;;;;5.93;1.70;;;;;;;25.06;32.56;99308.25;7684370;32;37802;-70
2022/06/22 20:33:21;;;;;;;12.13;2.40;;;;;;;25.07;33.27;99301.47;7702042;32;36932;-70
2022/06/22 20:37:43;;;;;;;3.00;1.30;;;;;;;24.99;33.89;99297.03;7710575;32;40015;-71
2022/06/22 20:42:10;;;;;;;4.72;1.70;;;;;;;24.93;33.77;99290.16;7711206;32;40158;-70
2022/06/22 20:46:31;;;;;;;3.58;1.60;;;;;;;25.03;33.80;99286.69;7711099;32;37699;-71
2022/06/22 20:50:52;;;;;;;2.25;1.20;;;;;;;24.92;34.66;99294.13;7697678;32;37119;-72
2022/06/22 20:55:53;;;;;;;3.03;1.20;;;;;;;24.90;34.30;99285.34;7710913;32;39362;-72
2022/06/22 21:00:13;;;;;;;1.77;1.40;;;;;;;24.72;34.26;99296.31;7710657;32;39929;-72
2022/06/22 21:04:44;;;;;;;3.92;1.83;;;;;;;24.71;35.05;99295.47;7696990;32;38745;-71
2022/06/22 21:09:05;;;;;;;6.43;2.00;;;;;;;24.61;37.11;99292.56;7697498;32;37762;-73
2022/06/22 21:13:45;;;;;;;3.53;1.92;;;;;;;24.47;39.18;99290.38;7709937;32;39640;-73
2022/06/22 21:18:10;;;;;;;4.72;1.90;;;;;;;24.22;40.04;99293.63;7710170;32;39922;-72
2022/06/22 21:22:29;;;;;;;6.03;1.73;;;;;;;24.32;39.35;99281.03;7710036;32;38779;-72
2022/06/22 21:26:48;;;;;;;4.37;1.87;;;;;;;24.35;38.85;99278.28;7709981;32;38051;-72
2022/06/22 21:31:12;;;;;;;4.65;2.12;;;;;;;24.12;38.80;99274.78;7709815;32;39809;-73
2022/06/22 21:35:45;;;;;;;4.68;2.28;;;;;;;24.06;37.62;99281.84;7710154;32;39683;-72
2022/06/22 21:40:19;;;;;;;5.65;2.17;;;;;;;24.02;38.64;99275.41;7709493;32;38627;-74
2022/06/22 21:44:54;;;;;;;5.85;2.25;;;;;;;24.03;39.76;99272.25;7710347;32;37021;-71
2022/06/22 21:49:10;;;;;;;5.53;2.00;;;;;;;23.98;41.41;99278.94;7712824;32;39089;-73
2022/06/22 21:53:44;;;;;;;3.83;1.65;;;;;;;23.96;41.68;99286.88;7712384;32;39764;-73